NJE932P EPKK-EPWA
Flight info
| Callsign | NJE932P |
|---|---|
| Flight time | 0h 31m |
| Altitude | 27000 |
| Route | POBO5J POBOK M985 KOTEK M866 LOGDA LOGD6U |
| Aircraft | C750/L-SBDE3FGHRWXY/S |
Departure
| Time | 2026-04-30 18:33 |
|---|---|
| Airport | Kraków John Paul II International Airport (EPKK) |
Arrival
| Time | 2026-04-30 19:05 |
|---|---|
| Airport | Warsaw Chopin Airport (EPWA) |
| Time | Latitude | Longitude | Altitude | Speed | Heading |
|---|---|---|---|---|---|
| 2026-04-30 18:17 | 50.07487 | 19.80214 | 787 ft | 0 kts | 168° |
| 2026-04-30 18:30 | 50.07435 | 19.80255 | 787 ft | 9 kts | 106° |
| 2026-04-30 18:31 | 50.07467 | 19.80376 | 787 ft | 16 kts | 22° |
| 2026-04-30 18:31 | 50.07759 | 19.80366 | 787 ft | 23 kts | 347° |
| 2026-04-30 18:32 | 50.08012 | 19.80200 | 786 ft | 18 kts | 269° |
| 2026-04-30 18:32 | 50.07988 | 19.80019 | 786 ft | 17 kts | 257° |
| 2026-04-30 18:32 | 50.07961 | 19.79826 | 785 ft | 40 kts | 258° |
| 2026-04-30 18:33 | 50.07817 | 19.78799 | 790 ft | 143 kts | 258° |
| 2026-04-30 18:33 | 50.07346 | 19.75295 | 1700 ft | 183 kts | 261° |
| 2026-04-30 18:33 | 50.07094 | 19.73267 | 2409 ft | 202 kts | 262° |
| 2026-04-30 18:34 | 50.06759 | 19.71017 | 2932 ft | 230 kts | 259° |
| 2026-04-30 18:34 | 50.06488 | 19.65887 | 4357 ft | 256 kts | 293° |
| 2026-04-30 18:34 | 50.07541 | 19.63706 | 5400 ft | 250 kts | 321° |
| 2026-04-30 18:35 | 50.09111 | 19.62598 | 6381 ft | 253 kts | 351° |
| 2026-04-30 18:35 | 50.10847 | 19.62905 | 7417 ft | 254 kts | 20° |
| 2026-04-30 18:35 | 50.12325 | 19.64398 | 8561 ft | 254 kts | 37° |
| 2026-04-30 18:36 | 50.15109 | 19.67896 | 10643 ft | 262 kts | 38° |
| 2026-04-30 18:36 | 50.16598 | 19.69730 | 11012 ft | 285 kts | 38° |
| 2026-04-30 18:36 | 50.19976 | 19.73903 | 11724 ft | 322 kts | 38° |
| 2026-04-30 18:37 | 50.21720 | 19.76071 | 12678 ft | 320 kts | 38° |
| 2026-04-30 18:37 | 50.23506 | 19.78184 | 13382 ft | 325 kts | 32° |
| 2026-04-30 18:37 | 50.25516 | 19.79826 | 14181 ft | 326 kts | 27° |
| 2026-04-30 18:37 | 50.27541 | 19.81444 | 14899 ft | 328 kts | 29° |
| 2026-04-30 18:38 | 50.29546 | 19.83183 | 15588 ft | 331 kts | 30° |
| 2026-04-30 18:38 | 50.31562 | 19.84948 | 16293 ft | 334 kts | 29° |
| 2026-04-30 18:38 | 50.33608 | 19.86680 | 17018 ft | 334 kts | 29° |
| 2026-04-30 18:38 | 50.35686 | 19.88428 | 17376 ft | 348 kts | 29° |
| 2026-04-30 18:39 | 50.37880 | 19.90304 | 17375 ft | 370 kts | 29° |
| 2026-04-30 18:39 | 50.40190 | 19.92290 | 17385 ft | 386 kts | 29° |
| 2026-04-30 18:39 | 50.42562 | 19.94318 | 17384 ft | 390 kts | 29° |
| 2026-04-30 18:39 | 50.44952 | 19.96358 | 17761 ft | 389 kts | 29° |
| 2026-04-30 18:40 | 50.47238 | 19.98317 | 19202 ft | 359 kts | 29° |
| 2026-04-30 18:40 | 50.49363 | 20.00142 | 20364 ft | 344 kts | 29° |
| 2026-04-30 18:40 | 50.51474 | 20.01958 | 21032 ft | 347 kts | 30° |
| 2026-04-30 18:40 | 50.53596 | 20.03783 | 21782 ft | 348 kts | 30° |
| 2026-04-30 18:41 | 50.55726 | 20.05615 | 22519 ft | 350 kts | 30° |
| 2026-04-30 18:41 | 50.57867 | 20.07461 | 23249 ft | 352 kts | 30° |
| 2026-04-30 18:41 | 50.60044 | 20.09340 | 23479 ft | 366 kts | 30° |
| 2026-04-30 18:41 | 50.62338 | 20.11324 | 23341 ft | 386 kts | 30° |
| 2026-04-30 18:42 | 50.64745 | 20.13405 | 23271 ft | 401 kts | 30° |
| 2026-04-30 18:42 | 50.69701 | 20.17693 | 23278 ft | 409 kts | 30° |
| 2026-04-30 18:42 | 50.72201 | 20.19863 | 23278 ft | 410 kts | 30° |
| 2026-04-30 18:45 | 50.97180 | 20.41686 | 23270 ft | 410 kts | 30° |
| 2026-04-30 18:45 | 50.99675 | 20.43881 | 23275 ft | 409 kts | 30° |
| 2026-04-30 18:45 | 51.02164 | 20.46074 | 23270 ft | 407 kts | 30° |
| 2026-04-30 18:46 | 51.04538 | 20.48162 | 22994 ft | 372 kts | 30° |
| 2026-04-30 18:46 | 51.06711 | 20.50080 | 22684 ft | 346 kts | 30° |
| 2026-04-30 18:46 | 51.08795 | 20.51926 | 22392 ft | 345 kts | 30° |
| 2026-04-30 18:46 | 51.10889 | 20.53782 | 22148 ft | 343 kts | 30° |
| 2026-04-30 18:47 | 51.12987 | 20.55638 | 22017 ft | 346 kts | 30° |
| 2026-04-30 18:47 | 51.15086 | 20.57498 | 21886 ft | 345 kts | 30° |
| 2026-04-30 18:47 | 51.17184 | 20.59360 | 21747 ft | 346 kts | 30° |
| 2026-04-30 18:47 | 51.19297 | 20.61238 | 21307 ft | 346 kts | 30° |
| 2026-04-30 18:48 | 51.21394 | 20.63102 | 20853 ft | 344 kts | 30° |
| 2026-04-30 18:48 | 51.23477 | 20.64956 | 20397 ft | 338 kts | 30° |
| 2026-04-30 18:48 | 51.25467 | 20.66729 | 19955 ft | 319 kts | 30° |
| 2026-04-30 18:48 | 51.27377 | 20.68433 | 19545 ft | 312 kts | 30° |
| 2026-04-30 18:49 | 51.29347 | 20.69878 | 19145 ft | 312 kts | 21° |
| 2026-04-30 18:49 | 51.31423 | 20.70953 | 18854 ft | 315 kts | 20° |
| 2026-04-30 18:49 | 51.33513 | 20.72080 | 18516 ft | 326 kts | 20° |
| 2026-04-30 18:49 | 51.35661 | 20.73267 | 18025 ft | 329 kts | 20° |
| 2026-04-30 18:50 | 51.37874 | 20.74493 | 17230 ft | 333 kts | 20° |
| 2026-04-30 18:50 | 51.40029 | 20.75681 | 16467 ft | 332 kts | 20° |
| 2026-04-30 18:50 | 51.42209 | 20.76883 | 15709 ft | 331 kts | 20° |
| 2026-04-30 18:50 | 51.44383 | 20.78085 | 14965 ft | 329 kts | 20° |
| 2026-04-30 18:51 | 51.46540 | 20.79281 | 14375 ft | 326 kts | 20° |
| 2026-04-30 18:51 | 51.48691 | 20.80472 | 13951 ft | 328 kts | 20° |
| 2026-04-30 18:51 | 51.50872 | 20.81682 | 13504 ft | 330 kts | 19° |
| 2026-04-30 18:51 | 51.53026 | 20.82877 | 13068 ft | 326 kts | 19° |
| 2026-04-30 18:52 | 51.55166 | 20.84066 | 12638 ft | 325 kts | 19° |
| 2026-04-30 18:52 | 51.57293 | 20.85250 | 12214 ft | 323 kts | 19° |
| 2026-04-30 18:52 | 51.59412 | 20.86430 | 11785 ft | 322 kts | 19° |
| 2026-04-30 18:52 | 51.61517 | 20.87603 | 11365 ft | 316 kts | 19° |
| 2026-04-30 18:53 | 51.63526 | 20.88724 | 10952 ft | 295 kts | 19° |
| 2026-04-30 18:53 | 51.65410 | 20.89775 | 10571 ft | 278 kts | 19° |
| 2026-04-30 18:53 | 51.67191 | 20.90771 | 10204 ft | 265 kts | 19° |
| 2026-04-30 18:53 | 51.68907 | 20.91731 | 9846 ft | 258 kts | 19° |
| 2026-04-30 18:54 | 51.70594 | 20.92676 | 9512 ft | 256 kts | 19° |
| 2026-04-30 18:54 | 51.72279 | 20.93621 | 9175 ft | 256 kts | 19° |
| 2026-04-30 18:54 | 51.73968 | 20.94567 | 8726 ft | 259 kts | 19° |
| 2026-04-30 18:54 | 51.75666 | 20.95521 | 8181 ft | 257 kts | 19° |
| 2026-04-30 18:55 | 51.77333 | 20.96457 | 7787 ft | 251 kts | 19° |
| 2026-04-30 18:55 | 51.80586 | 20.98286 | 7125 ft | 240 kts | 18° |
| 2026-04-30 18:55 | 51.82130 | 20.99156 | 6813 ft | 230 kts | 18° |
| 2026-04-30 18:56 | 51.85046 | 21.00799 | 6202 ft | 213 kts | 18° |
| 2026-04-30 18:56 | 51.86422 | 21.01575 | 5929 ft | 206 kts | 18° |
| 2026-04-30 18:56 | 51.87754 | 21.02327 | 5672 ft | 200 kts | 18° |
| 2026-04-30 18:57 | 51.90257 | 21.03741 | 5268 ft | 186 kts | 18° |
| 2026-04-30 18:57 | 51.91467 | 21.04425 | 4941 ft | 180 kts | 18° |
| 2026-04-30 18:57 | 51.92615 | 21.05075 | 4703 ft | 170 kts | 17° |
| 2026-04-30 18:58 | 51.94750 | 21.06284 | 4276 ft | 158 kts | 17° |
| 2026-04-30 18:58 | 51.95789 | 21.06871 | 4071 ft | 158 kts | 17° |
| 2026-04-30 18:58 | 51.96829 | 21.07461 | 3864 ft | 158 kts | 17° |
| 2026-04-30 18:59 | 51.98919 | 21.08646 | 3443 ft | 160 kts | 17° |
| 2026-04-30 19:00 | 52.02076 | 21.09315 | 2982 ft | 149 kts | 338° |
| 2026-04-30 19:00 | 52.02984 | 21.08525 | 2998 ft | 148 kts | 333° |
| 2026-04-30 19:00 | 52.04759 | 21.07007 | 2841 ft | 139 kts | 333° |
| 2026-04-30 19:01 | 52.06317 | 21.05648 | 2459 ft | 121 kts | 333° |
| 2026-04-30 19:01 | 52.07057 | 21.05003 | 2306 ft | 120 kts | 333° |
| 2026-04-30 19:02 | 52.08540 | 21.03716 | 1965 ft | 121 kts | 333° |
| 2026-04-30 19:02 | 52.10037 | 21.02394 | 1641 ft | 124 kts | 332° |
| 2026-04-30 19:03 | 52.11557 | 21.01085 | 1278 ft | 123 kts | 335° |
| 2026-04-30 19:03 | 52.13081 | 20.99754 | 939 ft | 126 kts | 332° |
| 2026-04-30 19:04 | 52.14616 | 20.98418 | 600 ft | 123 kts | 332° |
| 2026-04-30 19:04 | 52.16044 | 20.97181 | 338 ft | 98 kts | 332° |
| 2026-04-30 19:05 | 52.16906 | 20.96420 | 335 ft | 33 kts | 332° |
| 2026-04-30 19:05 | 52.17320 | 20.96058 | 335 ft | 34 kts | 332° |
| 2026-04-30 19:06 | 52.17702 | 20.95725 | 334 ft | 29 kts | 332° |
| 2026-04-30 19:06 | 52.17800 | 20.95641 | 334 ft | 20 kts | 332° |
| 2026-04-30 19:06 | 52.17948 | 20.95879 | 335 ft | 15 kts | 59° |
| 2026-04-30 19:07 | 52.18020 | 20.96122 | 332 ft | 3 kts | 13° |
| 2026-04-30 19:07 | 52.18036 | 20.96110 | 335 ft | 0 kts | 329° |
| 2026-04-30 19:08 | 52.18039 | 20.96096 | 335 ft | 0 kts | 251° |